createdAt,value
2022-12-03T00:01:02.647Z,20.80
2022-12-03T00:03:36.911Z,21.00
2022-12-03T00:08:39.261Z,14.20
2022-12-03T00:11:11.051Z,20.40
2022-12-03T00:13:42.677Z,21.80
2022-12-03T00:16:14.360Z,22.20
2022-12-03T00:18:45.979Z,20.30
2022-12-03T00:21:17.950Z,25.00
2022-12-03T00:23:49.477Z,17.20
2022-12-03T00:26:21.291Z,22.20
2022-12-03T00:28:54.809Z,23.50
2022-12-03T00:31:26.754Z,21.80
2022-12-03T00:33:58.532Z,22.20
2022-12-03T00:36:30.415Z,25.40
2022-12-03T00:39:02.109Z,23.60
2022-12-03T00:41:33.715Z,21.10
2022-12-03T00:44:05.923Z,20.30
2022-12-03T00:46:37.631Z,15.90
2022-12-03T00:49:09.313Z,23.20
2022-12-03T00:51:41.029Z,24.00
2022-12-03T00:54:13.021Z,19.20
2022-12-03T00:56:44.617Z,24.00
2022-12-03T00:59:16.462Z,22.90
2022-12-03T01:01:48.236Z,19.50
2022-12-03T01:04:19.981Z,22.20
2022-12-03T01:06:51.838Z,21.30
2022-12-03T01:09:23.664Z,24.50
2022-12-03T01:11:55.522Z,23.80
2022-12-03T01:14:27.212Z,15.90
2022-12-03T01:16:58.773Z,24.60
2022-12-03T01:19:30.561Z,21.20
2022-12-03T01:22:02.557Z,20.20
2022-12-03T01:24:34.330Z,18.70
2022-12-03T01:27:06.035Z,13.00
2022-12-03T01:29:37.651Z,20.50
2022-12-03T01:32:19.710Z,12.50
2022-12-03T01:34:53.267Z,20.20
2022-12-03T01:37:26.685Z,14.10
2022-12-03T01:39:58.455Z,18.10
2022-12-03T01:42:32.487Z,21.20
2022-12-03T01:47:36.706Z,10.90
2022-12-03T01:52:41.445Z,18.40
2022-12-03T01:55:17.514Z,17.80
2022-12-03T01:57:51.043Z,11.80
2022-12-03T02:00:27.116Z,10.00
2022-12-03T02:03:01.016Z,20.20
2022-12-03T02:05:34.137Z,20.10
2022-12-03T02:08:32.055Z,20.70
2022-12-03T02:11:06.659Z,14.40
2022-12-03T02:13:38.859Z,15.30
2022-12-03T02:16:10.930Z,20.10
2022-12-03T02:18:42.994Z,20.30
2022-12-03T02:21:19.470Z,19.60
2022-12-03T02:23:59.089Z,17.90
2022-12-03T02:26:31.117Z,19.60
2022-12-03T02:29:03.788Z,19.70
2022-12-03T02:31:35.712Z,20.10
2022-12-03T02:34:09.529Z,19.80
2022-12-03T02:36:41.780Z,18.30
2022-12-03T02:39:13.597Z,18.60
2022-12-03T02:42:08.840Z,17.10
2022-12-03T02:44:40.506Z,15.30
2022-12-03T02:47:12.690Z,16.80
2022-12-03T02:49:44.627Z,20.00
2022-12-03T02:52:16.448Z,15.90
2022-12-03T02:54:48.284Z,21.20
2022-12-03T02:57:20.075Z,17.90
2022-12-03T02:59:51.744Z,14.80
2022-12-03T03:02:23.757Z,15.00
2022-12-03T03:04:55.599Z,15.20
2022-12-03T03:07:27.575Z,18.90
2022-12-03T03:09:59.442Z,18.20
2022-12-03T03:12:33.646Z,14.90
2022-12-03T03:15:12.614Z,16.90
2022-12-03T03:17:45.355Z,10.60
2022-12-03T03:20:17.536Z,15.90
2022-12-03T03:22:49.189Z,15.50
2022-12-03T03:25:22.558Z,17.10
2022-12-03T03:27:54.227Z,8.90
2022-12-03T03:30:25.882Z,19.50
2022-12-03T03:32:57.667Z,16.90
2022-12-03T03:35:29.405Z,17.60
2022-12-03T03:38:01.395Z,18.80
2022-12-03T03:40:33.211Z,17.40
2022-12-03T03:43:05.123Z,17.10
2022-12-03T03:45:36.835Z,16.70
2022-12-03T03:48:08.789Z,16.40
2022-12-03T03:50:40.582Z,15.90
2022-12-03T03:53:12.958Z,15.80
2022-12-03T03:55:44.838Z,18.10
2022-12-03T03:58:16.798Z,20.00
2022-12-03T04:00:50.883Z,17.20
2022-12-03T04:03:22.549Z,19.30
2022-12-03T04:05:54.399Z,12.60
2022-12-03T04:08:25.975Z,17.50
2022-12-03T04:11:15.421Z,21.10
2022-12-03T04:13:47.218Z,22.70
2022-12-03T04:16:18.922Z,17.20
2022-12-03T04:18:50.956Z,14.80
2022-12-03T04:21:41.722Z,19.10
2022-12-03T04:24:14.072Z,15.70
2022-12-03T04:27:03.788Z,18.40
2022-12-03T04:29:35.560Z,16.90
2022-12-03T04:32:25.226Z,20.70
2022-12-03T04:35:14.324Z,18.20
2022-12-03T04:37:46.195Z,19.90
2022-12-03T04:40:31.791Z,17.30
2022-12-03T04:43:03.602Z,16.00
2022-12-03T04:45:35.432Z,19.40
2022-12-03T04:48:07.583Z,15.90
2022-12-03T04:50:39.102Z,17.40
2022-12-03T04:53:11.122Z,17.40
2022-12-03T04:55:42.717Z,19.40
2022-12-03T04:58:14.654Z,18.20
2022-12-03T05:00:46.549Z,17.60
2022-12-03T05:03:18.444Z,18.20
2022-12-03T05:05:50.069Z,18.00
2022-12-03T05:08:21.986Z,14.70
2022-12-03T05:10:53.685Z,20.30
2022-12-03T05:13:25.210Z,21.40
2022-12-03T05:15:56.910Z,22.00
2022-12-03T05:18:28.733Z,16.60
2022-12-03T05:21:00.415Z,19.10
2022-12-03T05:23:32.104Z,19.60
2022-12-03T05:26:04.065Z,18.60
2022-12-03T05:28:35.816Z,17.60
2022-12-03T05:31:07.693Z,16.50
2022-12-03T05:33:44.005Z,21.00
2022-12-03T05:36:16.440Z,16.90
2022-12-03T05:38:48.049Z,20.90
2022-12-03T05:41:37.593Z,14.70
2022-12-03T05:44:09.294Z,16.00
2022-12-03T05:46:40.922Z,18.50
2022-12-03T05:49:12.567Z,17.10
2022-12-03T05:51:44.244Z,16.80
2022-12-03T05:54:16.066Z,15.90
2022-12-03T05:56:47.919Z,19.60
2022-12-03T05:59:19.603Z,20.70
2022-12-03T06:01:51.155Z,15.00
2022-12-03T06:04:22.989Z,15.30
2022-12-03T06:06:54.733Z,18.50
2022-12-03T06:09:26.638Z,15.10
2022-12-03T06:11:58.539Z,16.10
2022-12-03T06:14:32.114Z,16.40
2022-12-03T06:17:04.909Z,17.20
2022-12-03T06:19:36.614Z,16.90
2022-12-03T06:22:08.159Z,17.70
2022-12-03T06:24:39.934Z,19.30
2022-12-03T06:27:11.750Z,19.50
2022-12-03T06:29:43.755Z,17.70
2022-12-03T06:32:15.658Z,16.80
2022-12-03T06:34:47.442Z,20.50
2022-12-03T06:37:19.103Z,16.50
2022-12-03T06:39:50.812Z,17.60
2022-12-03T06:42:22.580Z,9.10
2022-12-03T06:44:54.738Z,17.90
2022-12-03T06:47:26.560Z,13.50
2022-12-03T06:49:58.173Z,21.30
2022-12-03T06:52:29.936Z,18.60
2022-12-03T06:55:01.574Z,13.10
2022-12-03T06:57:33.139Z,18.00
2022-12-03T07:00:05.267Z,17.90
2022-12-03T07:02:37.064Z,17.00
2022-12-03T07:05:10.039Z,18.80
2022-12-03T07:07:41.745Z,17.80
2022-12-03T07:10:14.958Z,13.80
2022-12-03T07:12:46.636Z,18.50
2022-12-03T07:15:18.684Z,17.00
2022-12-03T07:17:51.216Z,16.60
2022-12-03T07:20:22.948Z,19.20
2022-12-03T07:22:54.507Z,17.30
2022-12-03T07:25:26.239Z,12.80
2022-12-03T07:27:58.025Z,19.40
2022-12-03T07:30:29.853Z,19.10
2022-12-03T07:33:01.395Z,11.80
2022-12-03T07:35:33.031Z,17.80
2022-12-03T07:38:04.755Z,18.70
2022-12-03T07:40:36.936Z,16.10
2022-12-03T07:43:09.095Z,14.60
2022-12-03T07:45:40.677Z,16.80
2022-12-03T07:48:12.733Z,17.00
2022-12-03T07:50:44.681Z,20.70
2022-12-03T07:53:16.279Z,15.30
2022-12-03T07:55:48.124Z,16.20
2022-12-03T07:58:19.823Z,17.30
2022-12-03T08:00:51.594Z,19.00
2022-12-03T08:03:23.221Z,17.10
2022-12-03T08:05:54.913Z,20.90
2022-12-03T08:08:26.623Z,17.40
2022-12-03T08:10:58.342Z,20.00
2022-12-03T08:13:30.959Z,23.40
2022-12-03T08:16:10.187Z,18.30
2022-12-03T08:18:42.059Z,21.40
2022-12-03T08:21:14.831Z,18.80
2022-12-03T08:23:46.560Z,22.80
2022-12-03T08:26:23.401Z,19.50
2022-12-03T08:28:55.572Z,18.40
2022-12-03T08:31:33.256Z,20.70
2022-12-03T08:34:18.890Z,21.10
2022-12-03T08:36:53.649Z,21.60
2022-12-03T08:39:33.644Z,20.40
2022-12-03T08:42:30.691Z,17.90
2022-12-03T08:45:41.448Z,20.40
2022-12-03T08:48:32.699Z,17.40
2022-12-03T08:51:07.726Z,17.60
2022-12-03T08:53:43.162Z,16.60
2022-12-03T08:56:23.763Z,19.00
2022-12-03T08:58:57.312Z,15.50
2022-12-03T09:01:36.535Z,20.00
2022-12-03T09:04:23.936Z,18.90
2022-12-03T09:06:56.360Z,15.70
2022-12-03T09:09:28.067Z,19.10
2022-12-03T09:12:02.199Z,22.90
2022-12-03T09:14:33.902Z,20.10
2022-12-03T09:17:06.371Z,22.70
2022-12-03T09:19:44.292Z,19.30
2022-12-03T09:22:17.641Z,20.30
2022-12-03T09:24:49.253Z,18.30
2022-12-03T09:27:22.703Z,20.10
2022-12-03T09:29:54.630Z,20.90
2022-12-03T09:32:26.463Z,21.70
2022-12-03T09:34:58.303Z,21.50
2022-12-03T09:37:30.175Z,22.90
2022-12-03T09:40:02.174Z,22.10
2022-12-03T09:42:33.875Z,19.40
2022-12-03T09:45:11.016Z,22.50
2022-12-03T09:47:44.292Z,17.20
2022-12-03T09:50:19.756Z,17.60
2022-12-03T09:52:54.896Z,23.40
2022-12-03T09:55:28.628Z,23.80
2022-12-03T09:58:00.881Z,18.50
2022-12-03T10:00:33.112Z,20.90
2022-12-03T10:03:09.101Z,16.90
2022-12-03T10:05:47.932Z,21.80
2022-12-03T10:08:22.792Z,20.50
2022-12-03T10:10:56.741Z,19.50
2022-12-03T10:13:31.298Z,25.30
2022-12-03T10:16:03.756Z,21.80
2022-12-03T10:18:41.486Z,17.70
2022-12-03T10:21:20.464Z,20.90
2022-12-03T10:23:55.378Z,18.70
2022-12-03T10:26:41.073Z,10.90
2022-12-03T10:29:17.744Z,25.20
2022-12-03T10:31:57.177Z,22.70
2022-12-03T10:34:31.913Z,21.70
2022-12-03T10:37:18.756Z,22.90
2022-12-03T10:40:01.490Z,21.60
2022-12-03T10:42:35.246Z,22.40
2022-12-03T10:45:21.155Z,22.70
2022-12-03T10:48:08.182Z,23.60
2022-12-03T10:50:45.187Z,19.00
2022-12-03T10:53:17.330Z,22.90
2022-12-03T10:55:51.264Z,23.50
2022-12-03T11:00:56.581Z,21.10
2022-12-03T11:03:30.529Z,20.10
2022-12-03T11:06:03.200Z,20.10
2022-12-03T11:08:36.932Z,17.00
2022-12-03T11:11:11.658Z,20.80
2022-12-03T11:13:50.845Z,21.60
2022-12-03T11:17:08.936Z,21.60
2022-12-03T11:19:49.899Z,21.70
2022-12-03T11:22:41.959Z,14.80
2022-12-03T11:25:57.403Z,22.10
2022-12-03T11:28:54.017Z,21.00
2022-12-03T11:31:40.551Z,17.60
2022-12-03T11:34:44.230Z,22.70
2022-12-03T11:37:31.351Z,21.80
2022-12-03T11:40:21.424Z,21.20
2022-12-03T11:42:53.320Z,19.90
2022-12-03T11:45:32.859Z,11.40
2022-12-03T11:48:10.264Z,24.20
2022-12-03T11:50:44.451Z,22.30
2022-12-03T11:53:18.946Z,24.10
2022-12-03T11:56:06.276Z,20.20
2022-12-03T11:58:39.702Z,24.40
2022-12-03T12:01:11.418Z,19.40
2022-12-03T12:03:47.181Z,25.90
2022-12-03T12:06:20.930Z,23.40
2022-12-03T12:09:04.033Z,23.60
2022-12-03T12:11:37.493Z,18.50
2022-12-03T12:14:09.958Z,15.80
2022-12-03T12:16:46.085Z,23.40
2022-12-03T12:19:38.627Z,24.70
2022-12-03T12:22:18.572Z,23.30
2022-12-03T12:24:53.183Z,24.60
2022-12-03T12:27:30.725Z,24.90
2022-12-03T12:30:05.207Z,20.70
2022-12-03T12:32:42.538Z,25.60
2022-12-03T12:35:19.719Z,16.60
2022-12-03T12:37:59.006Z,23.00
2022-12-03T12:40:34.130Z,24.20
2022-12-03T12:43:13.542Z,27.60
2022-12-03T12:45:47.712Z,25.50
2022-12-03T12:48:24.163Z,24.40
2022-12-03T12:51:02.395Z,26.40
2022-12-03T12:53:35.876Z,19.80
2022-12-03T12:56:15.686Z,22.20
2022-12-03T12:58:47.379Z,22.40
2022-12-03T13:01:23.572Z,23.20
2022-12-03T13:03:55.841Z,26.00
2022-12-03T13:06:29.915Z,24.40
2022-12-03T13:09:02.075Z,24.10
2022-12-03T13:11:41.445Z,24.10
2022-12-03T13:14:16.478Z,23.10
2022-12-03T13:16:48.995Z,23.80
2022-12-03T13:19:25.018Z,25.30
2022-12-03T13:21:57.850Z,25.20
2022-12-03T13:24:38.794Z,25.10
2022-12-03T13:27:26.975Z,26.80
2022-12-03T13:30:00.450Z,24.70
2022-12-03T13:32:34.670Z,25.80
2022-12-03T13:35:08.702Z,27.30
2022-12-03T13:37:41.081Z,21.80
2022-12-03T13:40:21.962Z,26.40
2022-12-03T13:42:54.412Z,23.10
2022-12-03T13:45:35.606Z,26.50
2022-12-03T13:48:19.238Z,23.60
2022-12-03T13:50:51.617Z,22.20
2022-12-03T13:53:26.114Z,24.60
2022-12-03T13:56:01.665Z,27.90
2022-12-03T13:58:34.913Z,26.20
2022-12-03T14:01:06.718Z,25.80
2022-12-03T14:03:38.380Z,19.60
2022-12-03T14:06:10.273Z,26.50
2022-12-03T14:08:41.908Z,27.00
2022-12-03T14:11:34.270Z,18.10
2022-12-03T14:14:05.831Z,17.90
2022-12-03T14:16:37.689Z,24.70
2022-12-03T14:19:09.617Z,24.00
2022-12-03T14:21:41.630Z,25.30
2022-12-03T14:24:13.397Z,23.80
2022-12-03T14:26:45.032Z,28.20
2022-12-03T14:29:16.778Z,28.60
2022-12-03T14:31:48.493Z,27.70
2022-12-03T14:34:20.419Z,20.90
2022-12-03T14:36:52.198Z,26.40
2022-12-03T14:39:23.930Z,26.20
2022-12-03T14:42:13.232Z,25.90
2022-12-03T14:44:46.747Z,25.10
2022-12-03T14:47:20.293Z,24.70
2022-12-03T14:49:53.180Z,26.80
2022-12-03T14:52:25.119Z,26.00
2022-12-03T14:54:56.807Z,24.40
2022-12-03T14:57:28.975Z,17.10
2022-12-03T15:00:00.699Z,28.60
2022-12-03T15:02:32.474Z,28.80
2022-12-03T15:05:04.838Z,28.10
2022-12-03T15:07:38.761Z,19.00
2022-12-03T15:10:11.707Z,28.90
2022-12-03T15:12:43.413Z,27.70
2022-12-03T15:15:15.103Z,27.30
2022-12-03T15:17:47.461Z,25.50
2022-12-03T15:20:19.567Z,26.40
2022-12-03T15:22:51.109Z,26.60
2022-12-03T15:25:25.615Z,26.40
2022-12-03T15:27:57.363Z,28.20
2022-12-03T15:30:29.250Z,29.20
2022-12-03T15:33:00.995Z,22.90
2022-12-03T15:35:32.792Z,22.70
2022-12-03T15:38:04.552Z,27.30
2022-12-03T15:40:38.339Z,29.10
2022-12-03T15:43:10.507Z,29.30
2022-12-03T15:45:42.364Z,27.40
2022-12-03T15:48:14.657Z,26.80
2022-12-03T15:50:46.283Z,27.10
2022-12-03T15:53:18.098Z,27.10
2022-12-03T15:55:49.756Z,27.70
2022-12-03T15:58:21.303Z,29.20
2022-12-03T16:00:53.114Z,27.60
2022-12-03T16:03:25.095Z,28.70
2022-12-03T16:05:56.767Z,29.20
2022-12-03T16:08:28.404Z,29.10
2022-12-03T16:11:00.351Z,30.40
2022-12-03T16:13:32.108Z,29.90
2022-12-03T16:16:04.051Z,29.70
2022-12-03T16:18:36.058Z,31.00
2022-12-03T16:21:07.751Z,30.30
2022-12-03T16:23:39.401Z,28.10
2022-12-03T16:26:11.075Z,26.80
2022-12-03T16:28:42.657Z,27.80
2022-12-03T16:31:14.328Z,28.20
2022-12-03T16:33:46.216Z,26.30
2022-12-03T16:36:18.333Z,28.30
2022-12-03T16:38:49.922Z,29.70
2022-12-03T16:41:22.463Z,31.10
2022-12-03T16:43:54.424Z,30.30
2022-12-03T16:46:26.852Z,25.40
2022-12-03T16:48:59.485Z,28.80
2022-12-03T16:51:31.300Z,29.30
2022-12-03T16:54:03.152Z,28.30
2022-12-03T16:56:35.019Z,29.20
2022-12-03T16:59:06.712Z,31.50
2022-12-03T17:01:38.420Z,32.30
2022-12-03T17:04:10.395Z,32.30
2022-12-03T17:06:41.979Z,31.50
2022-12-03T17:09:13.825Z,32.60
2022-12-03T17:11:45.640Z,25.20
2022-12-03T17:14:17.221Z,31.50
2022-12-03T17:16:48.931Z,25.40
2022-12-03T17:19:20.729Z,29.00
2022-12-03T17:21:54.173Z,29.90
2022-12-03T17:24:25.790Z,31.00
2022-12-03T17:26:57.339Z,32.50
2022-12-03T17:29:29.068Z,30.30
2022-12-03T17:32:00.965Z,34.90
2022-12-03T17:34:32.806Z,29.60
2022-12-03T17:37:04.518Z,33.90
2022-12-03T17:39:36.226Z,31.30
2022-12-03T17:42:08.056Z,37.30
2022-12-03T17:44:39.600Z,35.80
2022-12-03T17:47:11.344Z,32.50
2022-12-03T17:49:43.235Z,31.90
2022-12-03T17:52:15.202Z,34.10
2022-12-03T17:55:10.036Z,31.90
2022-12-03T17:57:38.632Z,33.30
2022-12-03T18:00:12.697Z,29.80
2022-12-03T18:02:44.622Z,31.40
2022-12-03T18:05:16.523Z,36.90
2022-12-03T18:07:48.417Z,35.30
2022-12-03T18:10:20.452Z,35.50
2022-12-03T18:12:53.979Z,31.80
2022-12-03T18:15:28.832Z,34.60
2022-12-03T18:18:00.390Z,34.40
2022-12-03T18:20:32.169Z,35.00
2022-12-03T18:23:04.150Z,35.60
2022-12-03T18:25:35.838Z,33.90
2022-12-03T18:28:07.633Z,28.60
2022-12-03T18:30:39.377Z,36.90
2022-12-03T18:33:11.458Z,22.50
2022-12-03T18:35:43.307Z,35.30
2022-12-03T18:38:15.720Z,31.00
2022-12-03T18:40:48.046Z,37.80
2022-12-03T18:43:19.833Z,36.40
2022-12-03T18:45:51.625Z,36.80
2022-12-03T18:48:23.400Z,36.70
2022-12-03T18:50:56.530Z,23.90
2022-12-03T18:53:28.206Z,34.00
2022-12-03T18:55:59.923Z,31.60
2022-12-03T18:58:32.141Z,28.70
2022-12-03T19:01:04.003Z,36.40
2022-12-03T19:03:36.428Z,35.30
2022-12-03T19:06:14.072Z,38.70
2022-12-03T19:08:51.770Z,38.60
2022-12-03T19:11:23.960Z,35.00
2022-12-03T19:13:57.527Z,36.20
2022-12-03T19:16:29.272Z,35.60
2022-12-03T19:19:01.140Z,37.00
2022-12-03T19:21:33.959Z,33.50
2022-12-03T19:26:58.943Z,34.70
2022-12-03T19:29:30.918Z,34.20
2022-12-03T19:32:02.873Z,35.80
2022-12-03T19:34:34.943Z,33.70
2022-12-03T19:37:06.517Z,37.80
2022-12-03T19:39:38.559Z,28.00
2022-12-03T19:42:10.235Z,38.90
2022-12-03T19:44:42.210Z,38.50
2022-12-03T19:47:14.249Z,26.30
2022-12-03T19:49:45.959Z,33.40
2022-12-03T19:52:17.604Z,40.80
2022-12-03T19:54:49.380Z,30.00
2022-12-03T19:57:23.461Z,34.30
2022-12-03T19:59:56.036Z,39.40
2022-12-03T20:02:28.211Z,37.20
2022-12-03T20:05:00.415Z,37.00
2022-12-03T20:07:32.964Z,37.40
2022-12-03T20:10:05.598Z,36.30
2022-12-03T20:12:37.528Z,33.00
2022-12-03T20:15:11.081Z,35.40
2022-12-03T20:17:42.920Z,34.60
2022-12-03T20:20:15.448Z,35.00
2022-12-03T20:22:47.297Z,36.10
2022-12-03T20:25:19.247Z,30.40
2022-12-03T20:27:50.904Z,35.20
2022-12-03T20:30:22.974Z,35.70
2022-12-03T20:32:54.571Z,37.80
2022-12-03T20:35:26.879Z,34.40
2022-12-03T20:37:58.463Z,34.60
2022-12-03T20:40:30.251Z,34.90
2022-12-03T20:43:01.881Z,36.00
2022-12-03T20:45:33.777Z,35.20
2022-12-03T20:48:05.731Z,35.40
2022-12-03T20:50:37.376Z,38.60
2022-12-03T20:53:24.222Z,37.70
2022-12-03T20:55:59.727Z,34.70
2022-12-03T20:58:31.604Z,34.80
2022-12-03T21:01:15.687Z,31.70
2022-12-03T21:03:48.819Z,35.90
2022-12-03T21:06:21.260Z,35.90
2022-12-03T21:08:55.015Z,34.30
2022-12-03T21:11:29.650Z,37.60
2022-12-03T21:14:01.859Z,37.80
2022-12-03T21:19:28.012Z,29.00
2022-12-03T21:21:59.778Z,34.40
2022-12-03T21:24:31.446Z,35.90
2022-12-03T21:27:03.203Z,36.00
2022-12-03T21:29:34.877Z,34.60
2022-12-03T21:32:07.016Z,36.30
2022-12-03T21:34:38.830Z,33.20
2022-12-03T21:37:10.660Z,33.80
2022-12-03T21:39:42.467Z,35.30
2022-12-03T21:42:18.630Z,36.30
2022-12-03T21:45:08.198Z,37.60
2022-12-03T21:50:12.260Z,30.00
2022-12-03T21:52:44.249Z,32.20
2022-12-03T21:55:15.937Z,34.00
2022-12-03T21:57:47.604Z,33.10
2022-12-03T22:00:20.111Z,31.00
2022-12-03T22:02:52.459Z,30.00
2022-12-03T22:05:24.465Z,26.20
2022-12-03T22:07:56.713Z,31.10
2022-12-03T22:10:28.548Z,30.40
2022-12-03T22:13:00.291Z,32.70
2022-12-03T22:15:32.349Z,35.90
2022-12-03T22:18:04.892Z,35.70
2022-12-03T22:20:36.568Z,32.90
2022-12-03T22:23:08.479Z,34.10
2022-12-03T22:25:40.124Z,31.80
2022-12-03T22:28:11.891Z,30.30
2022-12-03T22:30:43.521Z,30.90
2022-12-03T22:33:15.422Z,29.10
2022-12-03T22:35:56.939Z,27.60
2022-12-03T22:38:29.596Z,31.40
2022-12-03T22:41:01.678Z,30.90
2022-12-03T22:43:33.415Z,30.40
2022-12-03T22:46:05.369Z,31.10
2022-12-03T22:48:37.510Z,29.70
2022-12-03T22:51:14.189Z,23.90
2022-12-03T22:53:45.857Z,26.20
2022-12-03T22:56:17.571Z,29.60
2022-12-03T22:58:49.520Z,30.10
2022-12-03T23:01:25.573Z,24.00
2022-12-03T23:03:57.719Z,27.30
2022-12-03T23:06:30.464Z,24.30
2022-12-03T23:09:02.254Z,25.50
2022-12-03T23:11:33.828Z,24.90
2022-12-03T23:14:05.945Z,28.20
2022-12-03T23:16:37.625Z,28.00
2022-12-03T23:19:09.737Z,28.70
2022-12-03T23:21:41.821Z,30.50
2022-12-03T23:24:13.794Z,27.40
2022-12-03T23:26:45.775Z,28.40
2022-12-03T23:29:18.070Z,23.40
2022-12-03T23:31:49.791Z,29.10
2022-12-03T23:34:21.686Z,25.90
2022-12-03T23:36:53.451Z,23.80
2022-12-03T23:39:25.384Z,26.70
2022-12-03T23:41:57.275Z,27.80
2022-12-03T23:44:30.169Z,25.80
2022-12-03T23:47:02.373Z,24.80
2022-12-03T23:49:34.470Z,21.30
2022-12-03T23:52:06.219Z,26.80
2022-12-03T23:54:39.210Z,26.50
2022-12-03T23:57:10.872Z,27.80
2022-12-03T23:59:43.629Z,28.60
